Time;durP1;ratioP1;P1;durP2;ratioP2;P2;SDS_P1;SDS_P2;PMS_P1;PMS_P2;Temp;Humidity;BMP_temperature;BMP_pressure;BME280_temperature;BME280_humidity;BME280_pressure;Samples;Min_cycle;Max_cycle;Signal;HPM_P1;HPM_P2
2023/09/01 00:01:30;;;;;;;1.10;0.73;;;;;;;15.83;91.55;95484.13;4306797;33;20233;-65
2023/09/01 00:03:56;;;;;;;1.17;1.17;;;;;;;15.65;91.63;95480.75;4326626;32;20186;-65
2023/09/01 00:06:21;;;;;;;0.90;0.90;;;;;;;15.77;90.86;95488.09;4322302;32;20205;-65
2023/09/01 00:08:47;;;;;;;0.70;0.70;;;;;;;15.68;91.86;95484.69;4324506;32;20236;-65
2023/09/01 00:11:12;;;;;;;0.53;0.53;;;;;;;15.51;93.00;95488.19;4324569;32;20201;-65
2023/09/01 00:13:38;;;;;;;0.80;0.80;;;;;;;15.42;94.21;95490.88;4324026;32;20194;-65
2023/09/01 00:16:03;;;;;;;0.87;0.87;;;;;;;15.42;94.68;95487.41;4318240;32;20214;-65
2023/09/01 00:18:30;;;;;;;0.83;0.83;;;;;;;15.45;94.88;95497.47;4303623;33;20201;-65
2023/09/01 00:21:03;;;;;;;0.90;0.87;;;;;;;15.55;95.02;95501.69;4322042;32;20252;-65
2023/09/01 00:23:29;;;;;;;0.50;0.50;;;;;;;15.67;94.82;95502.63;4324115;32;20190;-65
2023/09/01 00:25:56;;;;;;;1.07;1.07;;;;;;;15.51;95.66;95506.09;4330298;32;20312;-65
2023/09/01 00:28:22;;;;;;;0.63;0.63;;;;;;;15.38;96.35;95508.66;4323329;32;20198;-65
2023/09/01 00:30:52;;;;;;;0.60;0.60;;;;;;;15.43;97.21;95507.69;4322785;32;20229;-65
2023/09/01 00:33:18;;;;;;;1.10;1.10;;;;;;;15.29;98.24;95504.44;4326355;32;20281;-64
2023/09/01 00:35:43;;;;;;;0.83;0.83;;;;;;;15.27;98.99;95501.28;4321935;32;20209;-65
2023/09/01 00:38:08;;;;;;;1.20;1.20;;;;;;;15.13;99.27;95504.94;4323723;32;20190;-65
2023/09/01 00:40:34;;;;;;;1.03;1.00;;;;;;;15.15;99.46;95493.16;4322780;32;20261;-65
2023/09/01 00:42:59;;;;;;;0.80;0.80;;;;;;;15.12;99.82;95510.59;4328999;32;20220;-65
2023/09/01 00:45:24;;;;;;;2.60;1.23;;;;;;;15.08;100.00;95496.31;4330272;32;20225;-65
2023/09/01 00:47:50;;;;;;;0.63;0.63;;;;;;;15.11;100.00;95503.69;4329253;32;20208;-65
2023/09/01 00:50:15;;;;;;;0.83;0.83;;;;;;;15.10;100.00;95496.78;4328997;32;20192;-65
2023/09/01 00:52:41;;;;;;;0.93;0.93;;;;;;;15.21;100.00;95507.91;4329242;32;20194;-65
2023/09/01 00:55:06;;;;;;;1.20;1.20;;;;;;;15.23;100.00;95495.00;4330076;32;20271;-64
2023/09/01 00:57:32;;;;;;;2.23;0.90;;;;;;;15.12;100.00;95499.91;4334060;32;20198;-65
2023/09/01 00:59:57;;;;;;;1.40;1.30;;;;;;;15.03;100.00;95499.91;4329452;32;20205;-65
2023/09/01 01:02:24;;;;;;;0.73;0.60;;;;;;;14.94;100.00;95491.16;4331212;32;20201;-65
2023/09/01 01:04:49;;;;;;;0.93;0.93;;;;;;;14.86;100.00;95488.47;4333619;32;20186;-65
2023/09/01 01:07:30;;;;;;;0.83;0.83;;;;;;;14.87;100.00;95480.16;4331563;32;20215;-65
2023/09/01 01:10:25;;;;;;;2.20;2.10;;;;;;;14.79;100.00;95488.94;4327062;32;20189;-65
2023/09/01 01:12:59;;;;;;;0.50;0.50;;;;;;;14.90;100.00;95481.41;4318927;32;20217;-64
2023/09/01 01:15:26;;;;;;;1.10;1.10;;;;;;;14.94;100.00;95479.69;4319313;32;20281;-65
2023/09/01 01:17:54;;;;;;;0.90;0.90;;;;;;;14.86;100.00;95475.13;4333139;32;20249;-65
2023/09/01 01:20:19;;;;;;;0.80;0.80;;;;;;;14.72;100.00;95469.97;4320208;33;20201;-65
2023/09/01 01:23:12;;;;;;;1.03;1.03;;;;;;;14.86;100.00;95457.19;4332087;32;20202;-65
2023/09/01 01:25:45;;;;;;;1.20;1.03;;;;;;;14.94;100.00;95450.28;4330873;32;20198;-65
2023/09/01 01:28:10;;;;;;;0.90;0.90;;;;;;;15.01;100.00;95439.88;4328435;32;20186;-65
2023/09/01 01:30:37;;;;;;;0.87;0.87;;;;;;;14.94;100.00;95429.69;4329818;32;20302;-65
2023/09/01 01:33:03;;;;;;;0.80;0.80;;;;;;;15.21;100.00;95422.38;4329379;32;20186;-65
2023/09/01 01:35:45;;;;;;;1.10;1.10;;;;;;;15.31;100.00;95420.16;4327684;32;20212;-65
2023/09/01 01:38:21;;;;;;;1.20;1.20;;;;;;;15.33;100.00;95427.84;4331371;32;20181;-65
2023/09/01 01:40:50;;;;;;;1.17;1.17;;;;;;;15.33;100.00;95425.19;4331540;32;20184;-65
2023/09/01 01:43:22;;;;;;;1.30;1.10;;;;;;;15.42;100.00;95429.38;4317851;33;20224;-64
2023/09/01 01:45:49;;;;;;;1.30;1.30;;;;;;;15.40;100.00;95428.91;4304628;33;20296;-65
2023/09/01 01:48:15;;;;;;;1.57;1.47;;;;;;;15.40;100.00;95430.78;4318132;33;20197;-65
2023/09/01 01:50:43;;;;;;;1.33;1.23;;;;;;;15.46;100.00;95424.97;4317027;33;20205;-65
2023/09/01 01:53:08;;;;;;;1.40;1.30;;;;;;;15.53;100.00;95431.69;4318053;33;20256;-65
2023/09/01 01:55:34;;;;;;;1.17;1.17;;;;;;;15.33;100.00;95425.19;4318445;33;20187;-65
2023/09/01 01:58:00;;;;;;;1.10;1.10;;;;;;;15.35;100.00;95423.75;4317852;33;20206;-65
2023/09/01 02:00:28;;;;;;;1.83;1.73;;;;;;;15.44;100.00;95419.16;4317658;33;20186;-65
2023/09/01 02:02:54;;;;;;;1.13;1.13;;;;;;;15.44;100.00;95421.81;4316653;33;20190;-65
2023/09/01 02:05:20;;;;;;;1.20;1.20;;;;;;;15.42;100.00;95421.34;4304468;33;20216;-65
2023/09/01 02:07:45;;;;;;;1.67;1.57;;;;;;;15.40;100.00;95423.56;4303689;33;20228;-66
2023/09/01 02:10:11;;;;;;;1.37;1.27;;;;;;;15.42;100.00;95425.91;4317980;33;20212;-65
2023/09/01 02:12:36;;;;;;;1.50;1.10;;;;;;;15.38;100.00;95422.34;4316078;33;20194;-65
2023/09/01 02:15:03;;;;;;;1.40;1.40;;;;;;;15.38;100.00;95423.09;4319271;33;20203;-65
2023/09/01 02:17:29;;;;;;;2.20;1.20;;;;;;;15.29;100.00;95413.56;4317314;33;20190;-65
2023/09/01 02:19:56;;;;;;;0.80;0.80;;;;;;;15.13;100.00;95408.75;4317182;33;20367;-65
2023/09/01 02:22:21;;;;;;;0.90;0.90;;;;;;;15.07;100.00;95402.00;4304366;33;20193;-65
2023/09/01 02:24:46;;;;;;;1.43;1.43;;;;;;;14.96;100.00;95397.31;4317756;33;20205;-65
2023/09/01 02:27:11;;;;;;;1.50;1.50;;;;;;;14.84;100.00;95399.84;4303997;33;20194;-65
2023/09/01 02:29:37;;;;;;;1.13;1.13;;;;;;;14.83;100.00;95401.75;4317408;33;20212;-65
2023/09/01 02:32:02;;;;;;;0.93;0.93;;;;;;;15.07;100.00;95407.34;4306006;33;20234;-66
2023/09/01 02:34:28;;;;;;;1.20;1.20;;;;;;;15.11;100.00;95391.47;4317356;33;20206;-65
2023/09/01 02:36:53;;;;;;;1.47;1.47;;;;;;;15.01;100.00;95391.78;4316764;33;20186;-65
2023/09/01 02:39:18;;;;;;;1.23;1.23;;;;;;;14.84;100.00;95391.84;4303504;33;20204;-65
2023/09/01 02:41:44;;;;;;;1.10;1.10;;;;;;;14.83;100.00;95391.06;4311797;32;20240;-65
2023/09/01 02:44:10;;;;;;;1.77;1.67;;;;;;;15.01;100.00;95389.13;4330041;32;20185;-65
2023/09/01 02:46:35;;;;;;;1.23;1.13;;;;;;;15.12;100.00;95388.47;4328073;32;20197;-65
2023/09/01 02:49:00;;;;;;;3.43;1.43;;;;;;;15.19;100.00;95387.16;4334305;32;20197;-65
2023/09/01 02:51:26;;;;;;;1.67;1.57;;;;;;;15.04;100.00;95380.47;4329947;32;20206;-66
2023/09/01 02:53:51;;;;;;;0.47;0.47;;;;;;;15.16;100.00;95387.84;4331427;32;20221;-65
2023/09/01 02:56:18;;;;;;;1.53;1.43;;;;;;;15.14;100.00;95385.47;4318388;32;20217;-65
2023/09/01 02:58:44;;;;;;;1.30;1.30;;;;;;;15.14;100.00;95390.81;4331229;32;20204;-65
2023/09/01 03:01:11;;;;;;;2.03;1.67;;;;;;;15.05;100.00;95382.03;4331816;32;20232;-65
2023/09/01 03:03:38;;;;;;;2.90;1.67;;;;;;;15.02;100.00;95374.66;4331437;32;20182;-65
2023/09/01 03:06:05;;;;;;;1.70;1.37;;;;;;;15.05;100.00;95377.47;4332233;32;20194;-65
2023/09/01 03:08:31;;;;;;;9.37;1.03;;;;;;;15.19;100.00;95373.81;4331363;32;20194;-65
2023/09/01 03:10:56;;;;;;;1.10;1.10;;;;;;;15.08;100.00;95374.16;4331922;32;20251;-65
2023/09/01 03:13:22;;;;;;;1.00;1.00;;;;;;;15.18;100.00;95374.91;4328933;32;20194;-65
2023/09/01 03:15:47;;;;;;;1.23;1.23;;;;;;;15.26;100.00;95374.09;4331255;32;20359;-65
2023/09/01 03:18:13;;;;;;;1.00;1.00;;;;;;;15.19;100.00;95371.91;4331305;32;20197;-65
2023/09/01 03:20:41;;;;;;;2.10;2.00;;;;;;;15.22;100.00;95376.63;4329077;32;20189;-65
2023/09/01 03:23:06;;;;;;;0.80;0.80;;;;;;;15.29;100.00;95368.91;4328413;32;20208;-66
2023/09/01 03:25:32;;;;;;;0.60;0.60;;;;;;;15.16;100.00;95363.78;4319138;32;20185;-65
2023/09/01 03:27:57;;;;;;;1.23;1.23;;;;;;;15.06;100.00;95373.69;4329843;32;20184;-65
2023/09/01 03:30:22;;;;;;;1.43;1.43;;;;;;;15.06;100.00;95363.00;4329566;32;20194;-65
2023/09/01 03:32:48;;;;;;;2.13;1.27;;;;;;;15.16;100.00;95363.78;4330321;32;20257;-65
2023/09/01 03:35:13;;;;;;;0.73;0.73;;;;;;;15.20;100.00;95367.34;4317396;32;20182;-65
2023/09/01 03:37:39;;;;;;;1.13;1.13;;;;;;;15.25;100.00;95361.84;4330714;32;20196;-66
2023/09/01 03:40:09;;;;;;;1.03;1.03;;;;;;;15.28;99.93;95369.22;4333231;32;20245;-65
2023/09/01 03:42:35;;;;;;;0.77;0.77;;;;;;;15.24;99.93;95370.97;4331407;32;20197;-65
2023/09/01 03:45:00;;;;;;;0.87;0.87;;;;;;;15.28;99.70;95361.19;4330588;32;20208;-65
2023/09/01 03:47:26;;;;;;;2.80;0.80;;;;;;;15.12;100.00;95361.75;4329690;32;20237;-65
2023/09/01 03:49:51;;;;;;;1.63;0.97;;;;;;;15.14;100.00;95361.44;4330967;32;20212;-65
2023/09/01 03:52:16;;;;;;;1.17;1.10;;;;;;;15.09;99.83;95361.59;4331124;32;20190;-65
2023/09/01 03:54:42;;;;;;;0.97;0.97;;;;;;;15.07;100.00;95369.16;4317255;32;20190;-65
2023/09/01 03:57:08;;;;;;;0.60;0.60;;;;;;;15.22;99.71;95368.59;4330977;32;20239;-66
2023/09/01 03:59:33;;;;;;;0.50;0.50;;;;;;;15.29;99.14;95371.56;4330382;32;20194;-65
2023/09/01 04:01:58;;;;;;;0.87;0.87;;;;;;;15.33;98.87;95369.81;4320024;32;20205;-65
2023/09/01 04:04:24;;;;;;;0.57;0.57;;;;;;;15.36;98.95;95368.41;4327177;32;20198;-65
2023/09/01 04:06:50;;;;;;;0.90;0.80;;;;;;;15.36;98.98;95377.22;4325683;32;20239;-65
2023/09/01 04:09:15;;;;;;;0.80;0.80;;;;;;;15.22;99.02;95371.28;4330508;32;20181;-65
2023/09/01 04:11:40;;;;;;;0.97;0.97;;;;;;;15.15;99.33;95375.56;4330746;32;20220;-65
2023/09/01 04:14:07;;;;;;;0.83;0.83;;;;;;;15.30;98.67;95367.00;4330259;32;20181;-65
2023/09/01 04:16:33;;;;;;;1.43;0.77;;;;;;;15.34;98.64;95370.62;4331173;32;20182;-65
2023/09/01 04:18:58;;;;;;;0.83;0.83;;;;;;;15.33;98.33;95385.09;4328552;32;20205;-65
2023/09/01 04:21:23;;;;;;;0.60;0.60;;;;;;;15.31;98.86;95384.63;4330218;32;20190;-65
2023/09/01 04:23:49;;;;;;;0.90;0.90;;;;;;;15.42;98.27;95385.81;4330339;32;20244;-66
2023/09/01 04:26:14;;;;;;;1.13;1.13;;;;;;;15.42;98.01;95386.59;4316981;32;20193;-65
2023/09/01 04:28:40;;;;;;;0.63;0.63;;;;;;;15.34;98.45;95386.66;4322940;32;20194;-65
2023/09/01 04:31:17;;;;;;;1.00;1.00;;;;;;;15.35;98.33;95389.00;4332734;32;20208;-65
2023/09/01 04:33:43;;;;;;;0.67;0.67;;;;;;;15.34;98.45;95390.09;4333255;32;20204;-65
2023/09/01 04:36:08;;;;;;;1.57;1.47;;;;;;;15.45;97.97;95393.97;4332006;32;20244;-65
2023/09/01 04:38:34;;;;;;;0.77;0.77;;;;;;;15.48;97.67;95395.22;4335147;32;20196;-65
2023/09/01 04:41:00;;;;;;;0.90;0.90;;;;;;;15.42;97.70;95391.16;4332235;32;20194;-65
2023/09/01 04:43:26;;;;;;;0.50;0.50;;;;;;;15.39;97.98;95397.16;4330097;32;20285;-65
2023/09/01 04:45:56;;;;;;;0.50;0.50;;;;;;;15.52;97.51;95388.13;4317098;32;20207;-65
2023/09/01 04:48:22;;;;;;;2.30;1.00;;;;;;;15.50;97.61;95393.03;4319209;32;20182;-65
2023/09/01 04:50:47;;;;;;;0.83;0.70;;;;;;;15.54;97.59;95387.81;4333689;32;20212;-65
2023/09/01 04:53:13;;;;;;;7.00;1.33;;;;;;;15.54;97.56;95396.63;4333361;32;20233;-65
2023/09/01 04:55:39;;;;;;;0.70;0.70;;;;;;;15.57;97.30;95392.56;4332331;32;20220;-65
2023/09/01 04:58:04;;;;;;;1.30;1.30;;;;;;;15.59;97.21;95388.41;4335272;32;20193;-65
2023/09/01 05:00:30;;;;;;;0.83;0.80;;;;;;;15.57;97.69;95389.87;4332992;32;20193;-66
2023/09/01 05:02:55;;;;;;;0.43;0.43;;;;;;;15.47;97.98;95391.78;4331928;32;20261;-65
2023/09/01 05:05:21;;;;;;;1.03;1.03;;;;;;;15.52;97.69;95390.03;4332935;32;20206;-66
2023/09/01 05:07:46;;;;;;;0.77;0.77;;;;;;;15.52;97.80;95390.81;4331752;32;20232;-65
2023/09/01 05:10:11;;;;;;;0.77;0.77;;;;;;;15.59;97.54;95391.09;4317248;32;20249;-65
2023/09/01 05:12:37;;;;;;;0.60;0.60;;;;;;;15.70;96.94;95396.87;4331264;32;20264;-66
2023/09/01 05:15:04;;;;;;;0.50;0.50;;;;;;;15.71;96.77;95401.12;4335331;32;20228;-65
2023/09/01 05:17:29;;;;;;;0.63;0.63;;;;;;;15.71;97.24;95411.81;4332888;32;20186;-65
2023/09/01 05:19:56;;;;;;;0.97;0.97;;;;;;;15.67;97.73;95409.00;4331676;32;20196;-65
2023/09/01 05:22:21;;;;;;;0.83;0.83;;;;;;;15.70;97.42;95402.22;4331601;32;20272;-66
2023/09/01 05:24:48;;;;;;;1.30;1.30;;;;;;;15.73;97.80;95401.59;4331966;32;20190;-65
2023/09/01 05:27:14;;;;;;;1.53;1.20;;;;;;;15.60;97.80;95411.38;4332150;32;20178;-66
2023/09/01 05:29:39;;;;;;;0.80;0.80;;;;;;;15.74;97.79;95411.97;4329129;32;20205;-65
2023/09/01 05:32:05;;;;;;;0.53;0.53;;;;;;;15.73;97.52;95412.28;4335022;32;20216;-66
2023/09/01 05:34:30;;;;;;;1.07;1.07;;;;;;;15.82;96.96;95408.44;4332187;32;20219;-65
2023/09/01 05:36:57;;;;;;;0.77;0.77;;;;;;;15.97;96.34;95420.47;4331420;32;20273;-65
2023/09/01 05:39:23;;;;;;;0.60;0.60;;;;;;;15.88;97.19;95419.75;4331336;32;20202;-65
2023/09/01 05:41:48;;;;;;;0.50;0.50;;;;;;;16.00;97.01;95425.16;4330941;32;20268;-65
2023/09/01 05:44:13;;;;;;;1.07;1.07;;;;;;;16.03;97.04;95421.06;4332711;32;20211;-66
2023/09/01 05:46:39;;;;;;;0.57;0.57;;;;;;;16.14;95.96;95419.56;4319360;32;20233;-65
2023/09/01 05:49:04;;;;;;;1.70;1.60;;;;;;;16.12;96.17;95414.53;4333240;32;20246;-65
2023/09/01 05:51:29;;;;;;;1.07;1.07;;;;;;;16.13;97.00;95421.47;4330913;32;20213;-65
2023/09/01 05:53:54;;;;;;;1.27;1.03;;;;;;;16.16;96.76;95422.72;4333021;32;24626;-65
2023/09/01 05:56:20;;;;;;;1.53;1.43;;;;;;;16.17;96.45;95428.84;4332338;32;20252;-65
2023/09/01 05:58:46;;;;;;;0.97;0.97;;;;;;;16.24;96.77;95421.84;4331892;32;20186;-66
2023/09/01 06:01:12;;;;;;;0.70;0.70;;;;;;;16.24;96.82;95429.88;4327741;32;20206;-65
2023/09/01 06:03:37;;;;;;;0.90;0.90;;;;;;;16.23;97.62;95435.56;4331049;32;20201;-66
2023/09/01 06:06:02;;;;;;;0.53;0.53;;;;;;;16.24;97.45;95431.78;4320313;32;20205;-65
2023/09/01 06:08:28;;;;;;;2.00;1.50;;;;;;;16.16;96.58;95433.41;4328696;32;20204;-65
2023/09/01 06:11:15;;;;;;;0.97;0.97;;;;;;;16.21;96.08;95438.56;4329031;32;20201;-65
2023/09/01 06:13:40;;;;;;;0.67;0.67;;;;;;;16.15;95.21;95442.56;4324969;32;20212;-65
2023/09/01 06:16:06;;;;;;;1.10;0.80;;;;;;;16.33;95.69;95443.22;4332360;32;20224;-66
2023/09/01 06:18:31;;;;;;;0.50;0.50;;;;;;;16.31;95.31;95442.75;4333602;32;20190;-65
2023/09/01 06:20:57;;;;;;;0.40;0.40;;;;;;;16.22;95.98;95452.72;4332582;32;20295;-65
2023/09/01 06:23:22;;;;;;;0.80;0.80;;;;;;;16.26;96.25;95446.41;4332332;32;20200;-65
2023/09/01 06:25:48;;;;;;;0.60;0.60;;;;;;;16.31;96.31;95446.22;4331904;32;20228;-66
2023/09/01 06:28:13;;;;;;;0.73;0.73;;;;;;;16.27;96.08;95453.31;4331983;32;20209;-66
2023/09/01 06:30:41;;;;;;;4.33;0.60;;;;;;;16.38;96.08;95446.50;4332155;32;20225;-66
2023/09/01 06:33:08;;;;;;;0.57;0.57;;;;;;;16.38;96.34;95459.09;4330709;32;20207;-66
2023/09/01 06:35:34;;;;;;;5.70;0.90;;;;;;;16.41;96.27;95463.81;4334002;32;20193;-65
2023/09/01 06:38:02;;;;;;;0.40;0.40;;;;;;;16.36;95.74;95458.63;4332217;32;20228;-65
2023/09/01 06:40:27;;;;;;;0.93;0.93;;;;;;;16.47;95.22;95468.63;4331843;32;20186;-65
2023/09/01 06:42:53;;;;;;;0.63;0.63;;;;;;;16.52;96.09;95464.97;4331962;32;20224;-65
2023/09/01 06:45:18;;;;;;;2.43;0.87;;;;;;;16.60;95.45;95466.81;4332227;32;20237;-65
2023/09/01 06:47:43;;;;;;;0.83;0.83;;;;;;;16.68;94.79;95474.00;4330228;32;20181;-65
2023/09/01 06:50:09;;;;;;;0.70;0.70;;;;;;;16.73;95.01;95464.97;4330096;32;20233;-65
2023/09/01 06:52:34;;;;;;;0.80;0.80;;;;;;;16.78;95.88;95467.47;4332305;32;20174;-65
2023/09/01 06:54:59;;;;;;;1.37;1.27;;;;;;;16.88;95.55;95471.63;4329983;32;20190;-65
2023/09/01 06:57:27;;;;;;;0.60;0.53;;;;;;;16.97;95.37;95475.81;4317827;32;20197;-66
2023/09/01 06:59:53;;;;;;;1.50;1.50;;;;;;;16.91;95.03;95474.44;4330168;32;20255;-65
2023/09/01 07:02:18;;;;;;;0.53;0.37;;;;;;;16.96;94.85;95474.25;4330468;32;20225;-65
2023/09/01 07:04:43;;;;;;;0.67;0.67;;;;;;;17.03;95.21;95469.12;4331685;32;20288;-65
2023/09/01 07:07:08;;;;;;;0.43;0.43;;;;;;;17.01;94.18;95470.56;4331788;32;20236;-66
2023/09/01 07:09:34;;;;;;;1.03;0.83;;;;;;;16.99;93.74;95468.22;4329277;32;20217;-65
2023/09/01 07:12:00;;;;;;;3.67;3.47;;;;;;;17.00;94.29;95471.69;4330464;32;20190;-65
2023/09/01 07:14:25;;;;;;;2.13;2.03;;;;;;;17.05;94.26;95482.97;4327476;32;20213;-65
2023/09/01 07:16:50;;;;;;;0.93;0.93;;;;;;;17.14;95.71;95486.34;4327656;32;20288;-66
2023/09/01 07:19:15;;;;;;;0.90;0.90;;;;;;;17.11;95.66;95484.34;4328221;32;20198;-65
2023/09/01 07:21:41;;;;;;;0.67;0.67;;;;;;;17.20;95.57;95483.47;4331644;32;20201;-66
2023/09/01 07:24:06;;;;;;;1.50;0.40;;;;;;;17.15;94.75;95487.94;4331123;32;20220;-66
2023/09/01 07:26:32;;;;;;;1.07;1.00;;;;;;;17.26;93.73;95487.50;4333518;32;20227;-65
2023/09/01 07:28:57;;;;;;;0.40;0.40;;;;;;;17.24;93.19;95487.84;4329595;32;20205;-65
2023/09/01 07:31:23;;;;;;;1.00;0.60;;;;;;;17.30;93.55;95483.81;4330029;32;20197;-65
2023/09/01 07:33:48;;;;;;;1.23;1.13;;;;;;;17.47;93.48;95494.38;4329992;32;20257;-66
2023/09/01 07:36:14;;;;;;;0.70;0.70;;;;;;;17.61;92.66;95486.03;4329813;32;20193;-65
2023/09/01 07:38:39;;;;;;;0.37;0.37;;;;;;;17.67;91.54;95491.97;4329321;32;20289;-66
2023/09/01 07:41:05;;;;;;;0.47;0.47;;;;;;;17.73;90.06;95490.63;4332700;32;20209;-65
2023/09/01 07:43:31;;;;;;;1.70;1.27;;;;;;;17.81;89.50;95481.69;4331409;32;20174;-65
2023/09/01 07:45:57;;;;;;;0.30;0.30;;;;;;;17.83;90.49;95499.03;4330857;32;20287;-65
2023/09/01 07:48:22;;;;;;;0.47;0.47;;;;;;;17.87;89.89;95495.69;4331019;32;20201;-65
2023/09/01 07:50:48;;;;;;;0.50;0.50;;;;;;;17.91;88.39;95483.16;4329875;32;20186;-65
2023/09/01 07:53:13;;;;;;;2.70;0.77;;;;;;;17.90;87.64;95497.69;4331039;32;20178;-65
2023/09/01 07:55:39;;;;;;;12.17;1.10;;;;;;;18.04;86.33;95490.88;4331004;32;20252;-66
2023/09/01 07:58:04;;;;;;;0.33;0.33;;;;;;;18.01;86.37;95491.56;4319189;32;20217;-65
2023/09/01 08:00:29;;;;;;;0.33;0.33;;;;;;;18.07;87.60;95500.16;4330557;32;20174;-65
2023/09/01 08:02:56;;;;;;;0.47;0.47;;;;;;;18.07;86.93;95500.16;4329737;32;20236;-65
2023/09/01 08:05:21;;;;;;;0.40;0.40;;;;;;;18.18;84.51;95495.91;4330056;32;20185;-65
2023/09/01 08:07:49;;;;;;;1.67;1.00;;;;;;;18.17;85.41;95497.00;4330805;32;20207;-65
2023/09/01 08:10:15;;;;;;;0.47;0.47;;;;;;;18.20;84.65;95501.72;4327467;32;20226;-65
2023/09/01 08:12:40;;;;;;;0.67;0.67;;;;;;;18.25;85.71;95506.88;4329287;32;20196;-65
2023/09/01 08:15:08;;;;;;;0.53;0.50;;;;;;;18.29;83.51;95507.75;4331698;32;20174;-65
2023/09/01 08:17:34;;;;;;;0.50;0.50;;;;;;;18.33;83.69;95497.88;4328359;32;20174;-64
2023/09/01 08:19:59;;;;;;;0.40;0.40;;;;;;;18.36;84.41;95502.59;4330244;32;20169;-65
2023/09/01 08:22:25;;;;;;;3.20;0.30;;;;;;;18.33;84.46;95508.62;4331085;32;20197;-65
2023/09/01 08:24:50;;;;;;;0.20;0.20;;;;;;;18.40;84.61;95510.75;4330827;32;20178;-64
2023/09/01 08:27:15;;;;;;;0.73;0.60;;;;;;;18.50;82.76;95513.75;4330985;32;20189;-65
2023/09/01 08:29:41;;;;;;;0.17;0.17;;;;;;;18.63;82.33;95508.41;4330629;32;20300;-65
2023/09/01 08:32:07;;;;;;;0.37;0.37;;;;;;;18.79;81.82;95503.87;4329127;32;20253;-65
2023/09/01 08:34:32;;;;;;;2.30;0.87;;;;;;;18.83;83.04;95505.53;4332309;32;20213;-65
2023/09/01 08:36:58;;;;;;;0.30;0.30;;;;;;;18.92;81.55;95508.06;4330509;32;20194;-65
2023/09/01 08:39:24;;;;;;;0.27;0.27;;;;;;;19.01;81.22;95511.41;4331206;32;20181;-65
2023/09/01 08:41:52;;;;;;;0.20;0.20;;;;;;;19.11;79.50;95505.56;4316639;32;20239;-65
2023/09/01 08:44:22;;;;;;;0.30;0.30;;;;;;;19.13;79.70;95514.03;4329041;32;20205;-65
2023/09/01 08:46:48;;;;;;;0.63;0.63;;;;;;;19.17;80.84;95509.56;4329442;32;20208;-65
2023/09/01 08:49:14;;;;;;;0.20;0.20;;;;;;;19.23;76.89;95508.19;4331067;32;20205;-65
2023/09/01 08:51:41;;;;;;;0.40;0.40;;;;;;;19.27;78.01;95500.22;4329107;32;20224;-65
2023/09/01 08:54:08;;;;;;;0.10;0.10;;;;;;;19.42;77.15;95501.38;4330921;32;20208;-65
2023/09/01 08:56:34;;;;;;;0.53;0.53;;;;;;;19.43;75.97;95508.31;4331220;32;20244;-65
2023/09/01 08:58:59;;;;;;;0.00;0.00;;;;;;;19.50;74.52;95516.59;4330327;32;20174;-65
2023/09/01 09:01:25;;;;;;;0.10;0.10;;;;;;;19.46;72.72;95510.31;4330574;32;20277;-65
2023/09/01 09:03:50;;;;;;;0.43;0.43;;;;;;;19.41;73.77;95515.94;4330492;32;20186;-65
2023/09/01 09:06:16;;;;;;;0.40;0.40;;;;;;;19.43;74.97;95521.78;4329198;32;20209;-65
2023/09/01 09:08:42;;;;;;;0.57;0.57;;;;;;;19.44;74.59;95515.25;4329429;32;20174;-65
2023/09/01 09:11:13;;;;;;;0.10;0.10;;;;;;;19.45;74.60;95514.13;4328827;32;20198;-65
2023/09/01 09:13:39;;;;;;;0.20;0.20;;;;;;;19.56;73.46;95512.53;4330026;32;20177;-65
2023/09/01 09:16:12;;;;;;;0.60;0.60;;;;;;;19.57;74.69;95511.37;4332852;32;20212;-65
2023/09/01 09:18:40;;;;;;;0.30;0.30;;;;;;;19.56;74.77;95499.84;4331582;32;20188;-65
2023/09/01 09:21:27;;;;;;;0.20;0.20;;;;;;;19.62;73.96;95518.44;4334423;32;20197;-65
2023/09/01 09:23:54;;;;;;;2.90;0.57;;;;;;;19.69;71.69;95511.34;4332432;32;20189;-65
2023/09/01 09:26:26;;;;;;;0.13;0.13;;;;;;;19.63;73.76;95506.53;4331536;32;20218;-65
2023/09/01 09:28:52;;;;;;;0.43;0.43;;;;;;;19.68;74.61;95509.00;4333355;32;20272;-65
2023/09/01 09:31:18;;;;;;;0.53;0.53;;;;;;;19.61;74.43;95501.50;4319323;32;20173;-65
2023/09/01 09:33:44;;;;;;;1.03;1.03;;;;;;;19.67;75.12;95504.72;4332963;32;20200;-65
2023/09/01 09:36:09;;;;;;;7.73;0.77;;;;;;;19.65;73.99;95509.66;4331560;32;20213;-65
2023/09/01 09:38:40;;;;;;;0.13;0.13;;;;;;;19.67;73.33;95510.91;4334738;32;20189;-65
2023/09/01 09:41:06;;;;;;;0.53;0.53;;;;;;;19.72;73.56;95501.78;4319182;33;20260;-65
2023/09/01 09:43:50;;;;;;;0.17;0.17;;;;;;;19.81;72.95;95505.84;4332626;32;20178;-65
2023/09/01 09:46:19;;;;;;;0.57;0.47;;;;;;;19.88;72.44;95505.25;4332443;32;20224;-65
2023/09/01 09:48:45;;;;;;;0.47;0.37;;;;;;;19.84;73.28;95505.16;4332381;32;20252;-65
2023/09/01 09:51:11;;;;;;;0.23;0.23;;;;;;;19.89;71.62;95507.59;4331365;32;20204;-65
2023/09/01 09:53:38;;;;;;;0.20;0.20;;;;;;;19.97;71.44;95507.75;4329783;32;20208;-65
2023/09/01 09:56:18;;;;;;;0.50;0.50;;;;;;;20.01;70.48;95511.31;4331776;32;20231;-65
2023/09/01 09:58:45;;;;;;;1.60;1.00;;;;;;;19.94;70.43;95508.47;4332692;32;20201;-65
2023/09/01 10:01:17;;;;;;;0.30;0.30;;;;;;;19.97;70.39;95507.75;4332343;32;20219;-65
2023/09/01 10:03:44;;;;;;;0.77;0.60;;;;;;;20.03;68.76;95507.16;4332254;32;20182;-65
2023/09/01 10:06:10;;;;;;;0.00;0.00;;;;;;;20.05;69.17;95504.91;4328071;32;20217;-65
2023/09/01 10:08:37;;;;;;;0.40;0.40;;;;;;;20.13;68.85;95495.06;4330589;32;20196;-66
2023/09/01 10:11:03;;;;;;;0.33;0.33;;;;;;;20.14;69.97;95493.94;4317908;32;20181;-65
2023/09/01 10:13:29;;;;;;;0.30;0.30;;;;;;;20.29;67.80;95497.75;4330113;32;20293;-65
2023/09/01 10:15:55;;;;;;;0.27;0.27;;;;;;;20.38;68.11;95491.03;4318402;32;20201;-65
2023/09/01 10:18:21;;;;;;;0.43;0.43;;;;;;;20.38;68.73;95503.72;4332325;32;20220;-65
2023/09/01 10:20:46;;;;;;;0.20;0.20;;;;;;;20.37;69.04;95502.94;4330577;32;20244;-65
2023/09/01 10:23:13;;;;;;;0.20;0.20;;;;;;;20.45;67.17;95502.00;4332083;32;20203;-65
2023/09/01 10:25:38;;;;;;;0.30;0.30;;;;;;;20.44;67.30;95499.66;4332207;32;20253;-65
2023/09/01 10:28:07;;;;;;;1.83;0.53;;;;;;;20.51;65.07;95505.19;4331333;32;20188;-65
2023/09/01 10:30:39;;;;;;;0.10;0.10;;;;;;;20.49;66.39;95497.47;4318561;32;20189;-65
2023/09/01 10:33:25;;;;;;;0.23;0.23;;;;;;;20.49;65.98;95502.06;4332327;32;20181;-65
2023/09/01 10:35:53;;;;;;;0.30;0.30;;;;;;;20.50;65.55;95493.62;4317590;32;20254;-65
2023/09/01 10:38:21;;;;;;;0.53;0.53;;;;;;;20.62;66.59;95498.13;4331785;32;20177;-65
2023/09/01 10:40:52;;;;;;;0.20;0.20;;;;;;;20.79;65.63;95499.62;4325824;32;20244;-65
2023/09/01 10:43:36;;;;;;;0.37;0.37;;;;;;;20.73;66.06;95491.03;4315388;32;20191;-65
2023/09/01 10:46:14;;;;;;;0.40;0.40;;;;;;;20.86;64.63;95500.56;4326662;32;20216;-65
2023/09/01 10:48:49;;;;;;;0.20;0.20;;;;;;;20.92;64.58;95495.66;4329894;32;20303;-65
2023/09/01 10:51:22;;;;;;;0.53;0.40;;;;;;;20.95;64.82;95497.66;4330905;32;20224;-65
2023/09/01 10:53:52;;;;;;;0.20;0.20;;;;;;;20.97;64.73;95489.22;4330340;32;20268;-65
2023/09/01 10:56:19;;;;;;;0.30;0.30;;;;;;;21.06;65.97;95485.16;4331433;32;20174;-65
2023/09/01 10:58:47;;;;;;;0.10;0.10;;;;;;;21.05;66.09;95480.87;4331813;32;20235;-65
2023/09/01 11:01:33;;;;;;;0.40;0.40;;;;;;;21.11;66.59;95487.56;4327502;32;20186;-65
2023/09/01 11:04:13;;;;;;;0.40;0.40;;;;;;;21.13;65.23;95482.59;4322296;32;20182;-64
2023/09/01 11:06:56;;;;;;;0.10;0.10;;;;;;;21.19;64.61;95483.88;4326563;32;20211;-65
2023/09/01 11:09:34;;;;;;;0.50;0.50;;;;;;;21.17;62.77;95478.06;4321451;32;20182;-65
2023/09/01 11:12:07;;;;;;;0.47;0.47;;;;;;;21.09;65.45;95475.56;4327493;32;20208;-65
2023/09/01 11:14:34;;;;;;;0.57;0.57;;;;;;;21.12;66.37;95483.72;4328724;32;20200;-65
2023/09/01 11:17:00;;;;;;;0.10;0.10;;;;;;;21.17;63.50;95472.66;4331708;32;20216;-65
2023/09/01 11:19:26;;;;;;;0.30;0.30;;;;;;;21.16;64.11;95478.41;4330903;32;20173;-65
2023/09/01 11:21:52;;;;;;;0.13;0.13;;;;;;;21.17;63.35;95488.06;4317632;32;20186;-65
2023/09/01 11:24:21;;;;;;;0.23;0.23;;;;;;;21.15;65.25;95487.63;4330896;32;20232;-65
2023/09/01 11:26:49;;;;;;;0.23;0.23;;;;;;;21.06;65.89;95477.06;4317772;32;20182;-65
2023/09/01 11:29:14;;;;;;;0.30;0.30;;;;;;;21.13;63.45;95479.13;4331658;32;20203;-65
2023/09/01 11:31:41;;;;;;;0.10;0.10;;;;;;;21.18;62.52;95484.22;4331217;32;20224;-65